Kitty C — 2EIQ6 — position and weather

sailwx.info

Track history (hours):
 
Tides and Currents Weather Stations Pressure Air Temp Water Temp Dewpoint Dewpoint Depression Visibility Wind Speed Wind Dir Waves Ship Positions

Kitty C

Last reported at 2014-Jul-23 19:34 UTC. Time now 2014-Jul-23 19:49 UTC.
Position N 54°36' W 000°14'.

Length 106 m; draft 7.1 m.

Type: Cargo ship. MMSI: 235085464.

Date/timePositionNaut miles runAvg speedWind from/ knotsBaromVisibWave heightAir tempDewpointWater temp
2014-Jul-23 19:34N 54°36' W 000°14'1110.7
2014-Jul-23 18:34N 54°27' W 000°04'1110.5
2014-Jul-23 17:34N 54°18' E 000°06'1010.0
2014-Jul-23 16:34N 54°10' E 000°16'10 9.5
2014-Jul-23 15:34N 54°02' E 000°24'9 8.9
2014-Jul-23 14:33N 53°54' E 000°32'8 8.5
2014-Jul-23 13:34N 53°47' E 000°40'9 8.7
2014-Jul-23 12:33N 53°40' E 000°48'9 9.4
2014-Jul-23 11:34N 53°32' E 000°57'2210.5
2014-Jul-23 09:27N 53°13' E 001°17'910.3
2014-Jul-23 08:34N 53°05' E 001°25'10 9.6
2014-Jul-23 07:34N 52°58' E 001°35'9 8.6
2014-Jul-23 06:33N 52°51' E 001°45'10 7.9
2014-Jul-23 05:17N 52°44' E 001°56'13 7.7
2014-Jul-23 03:32N 52°31' E 001°53'19 9.5
2014-Jul-23 01:34N 52°12' E 001°52'1110.7
2014-Jul-23 00:34N 52°01' E 001°50'1111.0
2014-Jul-22 23:34N 51°50' E 001°49'1110.6
2014-Jul-22 22:33N 51°40' E 001°49'1010.3
2014-Jul-22 21:33N 51°30' E 001°45'1010.3
2014-Jul-22 20:34N 51°20' E 001°41'10 9.8
2014-Jul-22 19:34N 51°10' E 001°35'7 7.2
2014-Jul-22 18:34N 51°03' E 001°36'10 9.2
2014-Jul-22 17:29N 50°55' E 001°26'31 7.8
2014-Jul-22 13:30N 50°32' E 000°55'9 8.6
2014-Jul-22 12:30N 50°29' E 000°42'8 8.6
2014-Jul-22 11:33N 50°27' E 000°30'240 9.6
2014-Jul-21 10:33N 48°53' W 005°12'1010.5
2014-Jul-21 09:33N 48°49' W 005°27'1010.1
2014-Jul-21 08:33N 48°42' W 005°38'40 9.9
2014-Jul-21 04:33N 48°07' W 006°06'9 8.9
2014-Jul-21 03:33N 47°59' W 006°12'  
2014-Jul-18 10:26N 38°09' W 009°40'18 9.8
2014-Jul-18 08:33N 37°51' W 009°35'10 9.9
2014-Jul-18 07:33N 37°42' W 009°32'1210.0
2014-Jul-18 06:22N 37°30' W 009°29'10 9.3
2014-Jul-18 05:15N 37°20' W 009°26'10 9.3
2014-Jul-18 04:07N 37°10' W 009°22'6 9.2
2014-Jul-18 03:29N 37°04' W 009°21'9 8.9
2014-Jul-18 02:26N 36°55' W 009°19'11 8.8
2014-Jul-18 01:14N 36°47' W 009°10'17 8.6
2014-Jul-17 23:13N 36°41' W 008°50'6 8.9
2014-Jul-17 22:34N 36°39' W 008°43'12 8.9
2014-Jul-17 21:12N 36°36' W 008°28'6 9.1
2014-Jul-17 20:33N 36°34' W 008°21'  
2014-Jul-15 07:10N 39°44' E 001°05'710.9
2014-Jul-15 06:32N 39°51' E 001°09'1110.9
2014-Jul-15 05:33N 39°60' E 001°16'1111.1
2014-Jul-15 04:33N 40°10' E 001°23'1111.1
2014-Jul-15 03:33N 40°19' E 001°30'1110.9
2014-Jul-15 02:33N 40°29' E 001°37'1110.8
2014-Jul-15 01:33N 40°38' E 001°43'1110.7
2014-Jul-15 00:33N 40°48' E 001°49'1110.6
2014-Jul-14 23:30N 40°58' E 001°57'1010.7
2014-Jul-14 22:33N 41°07' E 002°03'1110.6
2014-Jul-14 21:29N 41°17' E 002°10'  
Track history (hours):
 
Tides and Currents Weather Stations Pressure Air Temp Water Temp Dewpoint Dewpoint Depression Visibility Wind Speed Wind Dir Waves Ship Positions

Kitty C

Last reported at 2014-Jul-23 19:34 UTC. Time now 2014-Jul-23 19:49 UTC.
Position N 54°36' W 000°14'.

Length 106 m; draft 7.1 m.

Type: Cargo ship. MMSI: 235085464.

Date/timePositionNaut miles runAvg speedWind from/ knotsBaromVisibWave heightAir tempDewpointWater temp
2014-Jul-23 19:34N 54°36' W 000°14'1110.7
2014-Jul-23 18:34N 54°27' W 000°04'1110.5
2014-Jul-23 17:34N 54°18' E 000°06'1010.0
2014-Jul-23 16:34N 54°10' E 000°16'10 9.5
2014-Jul-23 15:34N 54°02' E 000°24'9 8.9
2014-Jul-23 14:33N 53°54' E 000°32'8 8.5
2014-Jul-23 13:34N 53°47' E 000°40'9 8.7
2014-Jul-23 12:33N 53°40' E 000°48'9 9.4
2014-Jul-23 11:34N 53°32' E 000°57'2210.5
2014-Jul-23 09:27N 53°13' E 001°17'910.3
2014-Jul-23 08:34N 53°05' E 001°25'10 9.6
2014-Jul-23 07:34N 52°58' E 001°35'9 8.6
2014-Jul-23 06:33N 52°51' E 001°45'10 7.9
2014-Jul-23 05:17N 52°44' E 001°56'13 7.7
2014-Jul-23 03:32N 52°31' E 001°53'19 9.5
2014-Jul-23 01:34N 52°12' E 001°52'1110.7
2014-Jul-23 00:34N 52°01' E 001°50'1111.0
2014-Jul-22 23:34N 51°50' E 001°49'1110.6
2014-Jul-22 22:33N 51°40' E 001°49'1010.3
2014-Jul-22 21:33N 51°30' E 001°45'1010.3
2014-Jul-22 20:34N 51°20' E 001°41'10 9.8
2014-Jul-22 19:34N 51°10' E 001°35'7 7.2
2014-Jul-22 18:34N 51°03' E 001°36'10 9.2
2014-Jul-22 17:29N 50°55' E 001°26'31 7.8
2014-Jul-22 13:30N 50°32' E 000°55'9 8.6
2014-Jul-22 12:30N 50°29' E 000°42'8 8.6
2014-Jul-22 11:33N 50°27' E 000°30'240 9.6
2014-Jul-21 10:33N 48°53' W 005°12'1010.5
2014-Jul-21 09:33N 48°49' W 005°27'1010.1
2014-Jul-21 08:33N 48°42' W 005°38'40 9.9
2014-Jul-21 04:33N 48°07' W 006°06'9 8.9
2014-Jul-21 03:33N 47°59' W 006°12'  
2014-Jul-18 10:26N 38°09' W 009°40'18 9.8
2014-Jul-18 08:33N 37°51' W 009°35'10 9.9
2014-Jul-18 07:33N 37°42' W 009°32'1210.0
2014-Jul-18 06:22N 37°30' W 009°29'10 9.3
2014-Jul-18 05:15N 37°20' W 009°26'10 9.3
2014-Jul-18 04:07N 37°10' W 009°22'6 9.2
2014-Jul-18 03:29N 37°04' W 009°21'9 8.9
2014-Jul-18 02:26N 36°55' W 009°19'11 8.8
2014-Jul-18 01:14N 36°47' W 009°10'17 8.6
2014-Jul-17 23:13N 36°41' W 008°50'6 8.9
2014-Jul-17 22:34N 36°39' W 008°43'12 8.9
2014-Jul-17 21:12N 36°36' W 008°28'6 9.1
2014-Jul-17 20:33N 36°34' W 008°21'  
2014-Jul-15 07:10N 39°44' E 001°05'710.9
2014-Jul-15 06:32N 39°51' E 001°09'1110.9
2014-Jul-15 05:33N 39°60' E 001°16'1111.1
2014-Jul-15 04:33N 40°10' E 001°23'1111.1
2014-Jul-15 03:33N 40°19' E 001°30'1110.9
2014-Jul-15 02:33N 40°29' E 001°37'1110.8
2014-Jul-15 01:33N 40°38' E 001°43'1110.7
2014-Jul-15 00:33N 40°48' E 001°49'1110.6
2014-Jul-14 23:30N 40°58' E 001°57'1010.7
2014-Jul-14 22:33N 41°07' E 002°03'1110.6
2014-Jul-14 21:29N 41°17' E 002°10'  

Dump ship's entire track history